Time;durP1;ratioP1;P1;durP2;ratioP2;P2;SDS_P1;SDS_P2;PMS_P1;PMS_P2;Temp;Humidity;BMP_temperature;BMP_pressure;BME280_temperature;BME280_humidity;BME280_pressure;Samples;Min_cycle;Max_cycle;Signal;HPM_P1;HPM_P2
2023/04/12 00:00:45;;;;;;;;;;;8.20;74.50;;;;;;4935846;28;20025;-62
2023/04/12 00:03:12;;;;;;;;;;;8.20;74.30;;;;;;4942052;28;19930;-61
2023/04/12 00:05:39;;;;;;;;;;;8.20;74.00;;;;;;4938444;28;20310;-62
2023/04/12 00:08:09;;;;;;;;;;;8.10;74.00;;;;;;4934668;28;20025;-61
2023/04/12 00:10:36;;;;;;;;;;;8.10;74.10;;;;;;4951381;28;20013;-61
2023/04/12 00:13:03;;;;;;;;;;;8.10;74.20;;;;;;4943484;28;19930;-61
2023/04/12 00:15:31;;;;;;;;;;;8.00;74.30;;;;;;4944012;28;20062;-61
2023/04/12 00:17:58;;;;;;;;;;;8.10;74.20;;;;;;4943304;28;19934;-62
2023/04/12 00:20:26;;;;;;;;;;;8.10;74.30;;;;;;4941127;28;19939;-62
2023/04/12 00:22:52;;;;;;;;;;;8.10;74.30;;;;;;4942963;28;20017;-62
2023/04/12 00:25:19;;;;;;;;;;;8.10;74.60;;;;;;4940677;28;19926;-62
2023/04/12 00:27:46;;;;;;;;;;;8.10;74.80;;;;;;4943906;28;20366;-63
2023/04/12 00:30:14;;;;;;;;;;;8.10;74.80;;;;;;4940900;28;20282;-61
2023/04/12 00:32:44;;;;;;;;;;;8.10;74.90;;;;;;4946625;28;19935;-62
2023/04/12 00:35:10;;;;;;;;;;;8.10;74.70;;;;;;4947483;28;19972;-63
2023/04/12 00:37:39;;;;;;;;;;;8.10;74.60;;;;;;4950240;28;20005;-62
2023/04/12 00:40:08;;;;;;;;;;;8.10;74.30;;;;;;4952182;28;19930;-61
2023/04/12 00:42:36;;;;;;;;;;;8.20;74.20;;;;;;4952979;28;19934;-62
2023/04/12 00:45:03;;;;;;;;;;;8.20;74.10;;;;;;4943566;28;19930;-62
2023/04/12 00:47:31;;;;;;;;;;;8.20;74.20;;;;;;4961645;28;19931;-61
2023/04/12 00:50:01;;;;;;;;;;;8.10;74.50;;;;;;4944995;28;20385;-62
2023/04/12 00:52:33;;;;;;;;;;;8.00;74.90;;;;;;4952541;28;20088;-62
2023/04/12 00:55:00;;;;;;;;;;;8.10;74.90;;;;;;4961313;28;19945;-61
2023/04/12 00:57:30;;;;;;;;;;;8.00;75.30;;;;;;4966424;28;19995;-62
2023/04/12 00:59:58;;;;;;;;;;;7.90;75.70;;;;;;4952795;28;20013;-62
2023/04/12 01:02:25;;;;;;;;;;;7.90;76.00;;;;;;4951927;28;19934;-61
2023/04/12 01:04:52;;;;;;;;;;;8.00;76.10;;;;;;4952737;28;19933;-62
2023/04/12 01:07:25;;;;;;;;;;;8.00;75.90;;;;;;4952818;28;19930;-61
2023/04/12 01:09:56;;;;;;;;;;;8.00;75.60;;;;;;4952358;28;20025;-60
2023/04/12 01:12:29;;;;;;;;;;;8.10;75.20;;;;;;4950441;28;19930;-62
2023/04/12 01:15:00;;;;;;;;;;;8.10;75.30;;;;;;4958741;28;19930;-61
2023/04/12 01:17:29;;;;;;;;;;;8.00;75.30;;;;;;4951525;28;19930;-63
2023/04/12 01:19:58;;;;;;;;;;;8.00;75.60;;;;;;4951350;28;19946;-63
2023/04/12 01:22:37;;;;;;;;;;;8.00;75.70;;;;;;4948628;28;20354;-63
2023/04/12 01:25:09;;;;;;;;;;;8.00;75.70;;;;;;4957986;28;20026;-62
2023/04/12 01:27:42;;;;;;;;;;;8.00;75.90;;;;;;4951057;28;19945;-62
2023/04/12 01:30:12;;;;;;;;;;;8.00;75.70;;;;;;4952112;28;20037;-62
2023/04/12 01:32:39;;;;;;;;;;;8.00;75.80;;;;;;4952086;28;20393;-63
2023/04/12 01:35:07;;;;;;;;;;;8.00;75.70;;;;;;4951685;28;20386;-62
2023/04/12 01:37:34;;;;;;;;;;;8.00;75.60;;;;;;4947770;28;20028;-62
2023/04/12 01:40:02;;;;;;;;;;;8.10;75.80;;;;;;4959212;28;19962;-61
2023/04/12 01:42:29;;;;;;;;;;;8.00;76.10;;;;;;4959146;28;19934;-61
2023/04/12 01:44:57;;;;;;;;;;;8.00;76.20;;;;;;4952696;28;19926;-62
2023/04/12 01:47:24;;;;;;;;;;;8.00;76.00;;;;;;4950658;28;19942;-62
2023/04/12 01:49:57;;;;;;;;;;;8.00;76.30;;;;;;4951083;28;19953;-62
2023/04/12 01:52:25;;;;;;;;;;;8.00;76.40;;;;;;4951487;28;19950;-61
2023/04/12 01:54:54;;;;;;;;;;;8.00;76.50;;;;;;4951180;28;19930;-62
2023/04/12 01:57:21;;;;;;;;;;;8.00;76.60;;;;;;4951124;28;19926;-63
2023/04/12 01:59:49;;;;;;;;;;;7.90;76.90;;;;;;4949831;28;19961;-61
2023/04/12 02:02:18;;;;;;;;;;;7.90;77.10;;;;;;4948665;28;19942;-61
2023/04/12 02:04:45;;;;;;;;;;;7.90;77.30;;;;;;4951040;28;19927;-62
2023/04/12 02:07:12;;;;;;;;;;;7.90;77.20;;;;;;4950064;28;19930;-62
2023/04/12 02:09:39;;;;;;;;;;;7.90;77.50;;;;;;4965793;28;19941;-59
2023/04/12 02:12:07;;;;;;;;;;;7.80;77.80;;;;;;4949476;28;20417;-62
2023/04/12 02:14:33;;;;;;;;;;;7.80;78.00;;;;;;4951470;28;19941;-62
2023/04/12 02:17:01;;;;;;;;;;;7.80;78.30;;;;;;4951214;28;19926;-62
2023/04/12 02:19:31;;;;;;;;;;;7.80;78.10;;;;;;4961078;28;20345;-64
2023/04/12 02:21:58;;;;;;;;;;;7.90;78.10;;;;;;4950204;28;19962;-61
2023/04/12 02:24:26;;;;;;;;;;;7.90;78.20;;;;;;4949969;28;19937;-62
2023/04/12 02:26:53;;;;;;;;;;;7.90;78.30;;;;;;4950795;28;19958;-61
2023/04/12 02:29:22;;;;;;;;;;;7.90;78.50;;;;;;4964679;28;19942;-61
2023/04/12 02:31:50;;;;;;;;;;;7.90;78.70;;;;;;4949877;28;19930;-61
2023/04/12 02:34:18;;;;;;;;;;;7.80;78.70;;;;;;4943017;28;19941;-62
2023/04/12 02:36:52;;;;;;;;;;;7.80;79.00;;;;;;4964433;28;19938;-61
2023/04/12 02:39:20;;;;;;;;;;;7.90;78.90;;;;;;4965085;28;19926;-61
2023/04/12 02:41:49;;;;;;;;;;;7.80;78.90;;;;;;4950279;28;19930;-61
2023/04/12 02:44:16;;;;;;;;;;;7.80;78.70;;;;;;4962944;28;19926;-61
2023/04/12 02:46:49;;;;;;;;;;;7.80;78.70;;;;;;4948891;28;19939;-62
2023/04/12 02:49:16;;;;;;;;;;;7.80;79.20;;;;;;4965364;28;19930;-62
2023/04/12 02:51:43;;;;;;;;;;;7.80;79.30;;;;;;4955478;28;20542;-61
2023/04/12 02:54:12;;;;;;;;;;;7.80;79.40;;;;;;4956761;28;19970;-60
2023/04/12 02:56:50;;;;;;;;;;;7.90;79.40;;;;;;4943502;28;20398;-62
2023/04/12 02:59:40;;;;;;;;;;;7.90;79.50;;;;;;4942416;28;19973;-62
2023/04/12 03:02:20;;;;;;;;;;;7.90;79.30;;;;;;4945235;28;19930;-62
2023/04/12 03:04:49;;;;;;;;;;;7.80;79.40;;;;;;4944603;28;20319;-61
2023/04/12 03:07:20;;;;;;;;;;;7.90;79.30;;;;;;4955112;28;20056;-62
2023/04/12 03:09:51;;;;;;;;;;;7.90;79.50;;;;;;4949285;28;20021;-62
2023/04/12 03:12:20;;;;;;;;;;;7.90;79.40;;;;;;4947879;28;19926;-61
2023/04/12 03:15:10;;;;;;;;;;;7.80;79.40;;;;;;4952415;28;21101;-62
2023/04/12 03:17:37;;;;;;;;;;;7.80;79.40;;;;;;4965373;28;20000;-63
2023/04/12 03:20:06;;;;;;;;;;;7.80;79.50;;;;;;4947697;28;19937;-62
2023/04/12 03:22:35;;;;;;;;;;;7.80;79.60;;;;;;4964855;28;20550;-62
2023/04/12 03:25:03;;;;;;;;;;;7.80;79.60;;;;;;4963965;28;20004;-62
2023/04/12 03:27:30;;;;;;;;;;;7.80;79.70;;;;;;4947577;28;19927;-61
2023/04/12 03:29:58;;;;;;;;;;;7.70;79.90;;;;;;4964753;28;20441;-61
2023/04/12 03:32:25;;;;;;;;;;;7.70;80.10;;;;;;4949268;28;19926;-63
2023/04/12 03:34:52;;;;;;;;;;;7.70;80.30;;;;;;4948598;28;19939;-61
2023/04/12 03:37:24;;;;;;;;;;;7.70;80.60;;;;;;4947034;28;19945;-63
2023/04/12 03:39:52;;;;;;;;;;;7.70;80.60;;;;;;4950041;28;19931;-62
2023/04/12 03:42:24;;;;;;;;;;;7.70;80.90;;;;;;4962380;28;19931;-61
2023/04/12 03:44:51;;;;;;;;;;;7.70;81.10;;;;;;4939192;28;20025;-62
2023/04/12 03:47:21;;;;;;;;;;;7.70;81.20;;;;;;4958026;28;20029;-63
2023/04/12 03:49:48;;;;;;;;;;;7.70;81.40;;;;;;4947547;28;20060;-63
2023/04/12 03:52:16;;;;;;;;;;;7.70;81.50;;;;;;4946620;28;20040;-63
2023/04/12 03:54:44;;;;;;;;;;;7.70;81.50;;;;;;4947932;28;19930;-63
2023/04/12 03:57:15;;;;;;;;;;;7.70;81.70;;;;;;4947311;28;20033;-63
2023/04/12 03:59:50;;;;;;;;;;;7.70;81.70;;;;;;4945508;28;20033;-61
2023/04/12 04:02:21;;;;;;;;;;;7.70;81.70;;;;;;4958786;28;19935;-61
2023/04/12 04:04:50;;;;;;;;;;;7.70;81.80;;;;;;4944366;28;19937;-63
2023/04/12 04:07:25;;;;;;;;;;;7.70;82.00;;;;;;4957835;28;20409;-61
2023/04/12 04:09:54;;;;;;;;;;;7.70;82.00;;;;;;4963071;28;20416;-62
2023/04/12 04:12:22;;;;;;;;;;;7.70;82.30;;;;;;4943145;28;19934;-62
2023/04/12 04:14:54;;;;;;;;;;;7.80;82.20;;;;;;4949067;28;19973;-61
2023/04/12 04:17:41;;;;;;;;;;;7.80;82.40;;;;;;4962030;28;19941;-63
2023/04/12 04:20:11;;;;;;;;;;;7.80;82.20;;;;;;4962370;28;19938;-60
2023/04/12 04:22:41;;;;;;;;;;;7.80;82.40;;;;;;4946308;28;19941;-62
2023/04/12 04:25:08;;;;;;;;;;;7.80;82.70;;;;;;4953402;28;19930;-61
2023/04/12 04:27:39;;;;;;;;;;;7.70;83.00;;;;;;4946475;28;20417;-61
2023/04/12 04:30:09;;;;;;;;;;;7.70;83.00;;;;;;4951888;28;19935;-61
2023/04/12 04:32:43;;;;;;;;;;;7.70;83.00;;;;;;4960832;28;20025;-62
2023/04/12 04:35:11;;;;;;;;;;;7.70;83.00;;;;;;4945770;28;19981;-61
2023/04/12 04:37:51;;;;;;;;;;;7.70;82.90;;;;;;4947501;28;19968;-62
2023/04/12 04:40:20;;;;;;;;;;;7.80;82.90;;;;;;4945468;28;19931;-63
2023/04/12 04:42:53;;;;;;;;;;;7.70;82.90;;;;;;4962459;28;19930;-63
2023/04/12 04:45:25;;;;;;;;;;;7.70;82.90;;;;;;4963046;28;19931;-62
2023/04/12 04:47:53;;;;;;;;;;;7.70;83.00;;;;;;4949224;28;19930;-63
2023/04/12 04:50:21;;;;;;;;;;;7.70;82.80;;;;;;4945810;28;19935;-62
2023/04/12 04:52:48;;;;;;;;;;;7.80;83.00;;;;;;4946393;28;19934;-62
2023/04/12 04:55:16;;;;;;;;;;;7.70;83.20;;;;;;4960058;28;19961;-62
2023/04/12 04:57:45;;;;;;;;;;;7.80;83.10;;;;;;4965102;28;20378;-63
2023/04/12 05:00:15;;;;;;;;;;;7.70;83.20;;;;;;4942990;28;20602;-63
2023/04/12 05:02:46;;;;;;;;;;;7.70;83.50;;;;;;4958790;28;20337;-61
2023/04/12 05:05:22;;;;;;;;;;;7.70;83.70;;;;;;4964723;28;19926;-61
2023/04/12 05:07:49;;;;;;;;;;;7.70;83.50;;;;;;4965422;28;19933;-63
2023/04/12 05:10:16;;;;;;;;;;;7.80;83.60;;;;;;4964954;28;19958;-61
2023/04/12 05:12:44;;;;;;;;;;;7.80;83.30;;;;;;4947963;28;19961;-62
2023/04/12 05:15:13;;;;;;;;;;;7.80;83.40;;;;;;4960461;28;20405;-62
2023/04/12 05:17:41;;;;;;;;;;;7.90;83.20;;;;;;4947824;28;19938;-62
2023/04/12 05:20:12;;;;;;;;;;;7.90;83.40;;;;;;4963870;28;19938;-62
2023/04/12 05:22:39;;;;;;;;;;;7.90;83.10;;;;;;4949400;28;19930;-63
2023/04/12 05:25:06;;;;;;;;;;;7.90;83.40;;;;;;4949073;28;20461;-62
2023/04/12 05:27:39;;;;;;;;;;;7.90;83.40;;;;;;4961760;28;20505;-62
2023/04/12 05:30:08;;;;;;;;;;;7.90;83.60;;;;;;4962367;28;21038;-60
2023/04/12 05:32:34;;;;;;;;;;;7.90;83.80;;;;;;4962558;28;19930;-63
2023/04/12 05:35:01;;;;;;;;;;;7.90;83.80;;;;;;4949080;28;20400;-62
2023/04/12 05:37:30;;;;;;;;;;;7.90;84.10;;;;;;4963049;28;19950;-62
2023/04/12 05:39:57;;;;;;;;;;;8.00;84.00;;;;;;4947224;28;19945;-62
2023/04/12 05:42:24;;;;;;;;;;;7.90;84.20;;;;;;4949646;28;19939;-61
2023/04/12 05:44:51;;;;;;;;;;;8.00;84.30;;;;;;4965541;28;19949;-63
2023/04/12 05:47:21;;;;;;;;;;;8.00;84.60;;;;;;4952234;28;19931;-63
2023/04/12 05:49:50;;;;;;;;;;;8.00;84.80;;;;;;4947844;28;19937;-63
2023/04/12 05:52:18;;;;;;;;;;;8.10;84.50;;;;;;4961982;28;19981;-60
2023/04/12 05:54:46;;;;;;;;;;;8.10;84.10;;;;;;4963767;28;20017;-61
2023/04/12 05:57:17;;;;;;;;;;;8.20;84.10;;;;;;4963340;28;19942;-62
2023/04/12 05:59:47;;;;;;;;;;;8.20;84.30;;;;;;4965382;28;19953;-64
2023/04/12 06:02:14;;;;;;;;;;;8.20;84.50;;;;;;4949663;28;19934;-62
2023/04/12 06:04:41;;;;;;;;;;;8.30;84.50;;;;;;4949373;28;20405;-61
2023/04/12 06:07:10;;;;;;;;;;;8.30;84.40;;;;;;4946220;28;19957;-62
2023/04/12 06:09:37;;;;;;;;;;;8.30;84.70;;;;;;4949972;28;19930;-62
2023/04/12 06:12:06;;;;;;;;;;;8.40;84.90;;;;;;4945974;28;19941;-62
2023/04/12 06:14:35;;;;;;;;;;;8.40;85.00;;;;;;4964170;28;19949;-61
2023/04/12 06:17:02;;;;;;;;;;;8.50;84.10;;;;;;4959803;28;19926;-62
2023/04/12 06:19:29;;;;;;;;;;;8.40;84.50;;;;;;4947764;28;19934;-62
2023/04/12 06:21:56;;;;;;;;;;;8.50;84.10;;;;;;4961633;28;19927;-61
2023/04/12 06:24:28;;;;;;;;;;;8.40;84.40;;;;;;4953438;28;19931;-62
2023/04/12 06:26:56;;;;;;;;;;;8.50;84.80;;;;;;4947950;28;19931;-60
2023/04/12 06:29:24;;;;;;;;;;;8.50;84.70;;;;;;4963142;28;20008;-61
2023/04/12 06:31:51;;;;;;;;;;;8.60;84.50;;;;;;4955127;28;19985;-63
2023/04/12 06:34:17;;;;;;;;;;;8.60;84.60;;;;;;4963703;28;19994;-63
2023/04/12 06:36:46;;;;;;;;;;;8.60;84.20;;;;;;4941381;28;20032;-63
2023/04/12 06:39:15;;;;;;;;;;;8.60;84.40;;;;;;4949266;28;20010;-63
2023/04/12 06:41:42;;;;;;;;;;;8.60;84.50;;;;;;4948230;28;19993;-62
2023/04/12 06:44:09;;;;;;;;;;;8.60;85.00;;;;;;4946479;28;19934;-62
2023/04/12 06:46:38;;;;;;;;;;;8.70;84.70;;;;;;4945600;28;19930;-62
2023/04/12 06:49:05;;;;;;;;;;;8.60;83.90;;;;;;4949872;28;20021;-62
2023/04/12 06:51:33;;;;;;;;;;;8.60;84.60;;;;;;4947321;28;20017;-62
2023/04/12 06:54:00;;;;;;;;;;;8.70;85.60;;;;;;4947438;28;19934;-62
2023/04/12 06:56:26;;;;;;;;;;;8.70;85.50;;;;;;4948473;28;19931;-63
2023/04/12 06:58:53;;;;;;;;;;;8.60;84.70;;;;;;4948623;28;20534;-63
2023/04/12 07:01:20;;;;;;;;;;;8.70;85.30;;;;;;4942273;28;20033;-62
2023/04/12 07:03:48;;;;;;;;;;;8.70;85.40;;;;;;4944600;28;19973;-61
2023/04/12 07:06:15;;;;;;;;;;;8.70;85.10;;;;;;4945846;28;19931;-62
2023/04/12 07:08:42;;;;;;;;;;;8.70;85.10;;;;;;4948600;28;19926;-60
2023/04/12 07:11:09;;;;;;;;;;;8.60;85.20;;;;;;4948127;28;20037;-59
2023/04/12 07:13:36;;;;;;;;;;;8.70;84.90;;;;;;4946624;28;20014;-62
2023/04/12 07:16:02;;;;;;;;;;;8.70;84.90;;;;;;4947119;28;19934;-62
2023/04/12 07:18:29;;;;;;;;;;;8.70;84.80;;;;;;4947213;28;20009;-62
2023/04/12 07:20:58;;;;;;;;;;;8.70;84.50;;;;;;4949122;28;19934;-61
2023/04/12 07:23:26;;;;;;;;;;;8.70;85.00;;;;;;4945790;28;19926;-62
2023/04/12 07:25:52;;;;;;;;;;;8.70;84.90;;;;;;4945671;28;20405;-62
2023/04/12 07:28:19;;;;;;;;;;;8.70;84.20;;;;;;4950370;28;20401;-62
2023/04/12 07:30:46;;;;;;;;;;;8.70;84.20;;;;;;4956758;28;19926;-62
2023/04/12 07:33:13;;;;;;;;;;;8.70;84.80;;;;;;4947537;28;20057;-62
2023/04/12 07:35:41;;;;;;;;;;;8.70;84.50;;;;;;4961266;28;19953;-62
2023/04/12 07:38:09;;;;;;;;;;;8.80;84.60;;;;;;4944036;28;20349;-61
2023/04/12 07:40:36;;;;;;;;;;;8.80;84.80;;;;;;4948100;28;19958;-62
2023/04/12 07:43:03;;;;;;;;;;;8.80;84.20;;;;;;4944034;28;20181;-62
2023/04/12 07:45:30;;;;;;;;;;;8.80;84.70;;;;;;4941537;28;19930;-62
2023/04/12 07:47:56;;;;;;;;;;;8.80;84.00;;;;;;4945231;28;19941;-62
2023/04/12 07:50:23;;;;;;;;;;;8.80;84.60;;;;;;4948441;28;19949;-62
2023/04/12 07:52:50;;;;;;;;;;;8.80;85.40;;;;;;4947065;28;20025;-61
2023/04/12 07:55:18;;;;;;;;;;;8.80;84.50;;;;;;4944726;28;19931;-64
2023/04/12 07:57:45;;;;;;;;;;;8.80;85.10;;;;;;4947399;28;19935;-62
2023/04/12 08:00:12;;;;;;;;;;;8.80;85.20;;;;;;4946481;28;20541;-62
2023/04/12 08:02:42;;;;;;;;;;;8.80;84.60;;;;;;4949786;28;20586;-61
2023/04/12 08:05:09;;;;;;;;;;;8.80;84.80;;;;;;4950558;28;19934;-62
2023/04/12 08:07:36;;;;;;;;;;;8.90;84.70;;;;;;4944479;28;19939;-61
2023/04/12 08:10:02;;;;;;;;;;;8.90;84.30;;;;;;4947909;28;19934;-62
2023/04/12 08:12:30;;;;;;;;;;;8.90;85.40;;;;;;4946370;28;19930;-62
2023/04/12 08:14:57;;;;;;;;;;;9.00;85.20;;;;;;4946538;28;19930;-62
2023/04/12 08:17:27;;;;;;;;;;;9.00;85.20;;;;;;4947980;29;19930;-62
2023/04/12 08:19:54;;;;;;;;;;;9.00;85.00;;;;;;4947128;28;19945;-62
2023/04/12 08:22:20;;;;;;;;;;;9.00;84.70;;;;;;4945346;28;19927;-62
2023/04/12 08:24:47;;;;;;;;;;;9.00;84.30;;;;;;4946041;28;19926;-62
2023/04/12 08:27:15;;;;;;;;;;;9.00;85.20;;;;;;4946462;28;19937;-62
2023/04/12 08:29:43;;;;;;;;;;;9.10;85.10;;;;;;4944880;28;19969;-62
2023/04/12 08:32:11;;;;;;;;;;;9.10;84.50;;;;;;4942587;28;20502;-62
2023/04/12 08:34:38;;;;;;;;;;;9.10;85.00;;;;;;4948629;28;19931;-62
2023/04/12 08:37:05;;;;;;;;;;;9.10;85.30;;;;;;4944934;28;20325;-61
2023/04/12 08:39:31;;;;;;;;;;;9.20;85.40;;;;;;4951996;28;20393;-62
2023/04/12 08:41:59;;;;;;;;;;;9.20;84.80;;;;;;4948009;28;19933;-63
2023/04/12 08:44:33;;;;;;;;;;;9.20;84.90;;;;;;4950225;28;19926;-61
2023/04/12 08:47:02;;;;;;;;;;;9.20;85.60;;;;;;4950658;28;19930;-62
2023/04/12 08:49:30;;;;;;;;;;;9.20;86.10;;;;;;4948923;28;19926;-62
2023/04/12 08:51:59;;;;;;;;;;;9.20;85.40;;;;;;4951753;28;19938;-61
2023/04/12 08:54:27;;;;;;;;;;;9.30;85.70;;;;;;4948789;28;19965;-63
2023/04/12 08:56:56;;;;;;;;;;;9.20;85.70;;;;;;4949278;28;20021;-62
2023/04/12 08:59:24;;;;;;;;;;;9.30;85.60;;;;;;4949908;28;20029;-62
2023/04/12 09:01:51;;;;;;;;;;;9.30;85.60;;;;;;4948320;28;20212;-62
2023/04/12 09:04:19;;;;;;;;;;;9.30;85.00;;;;;;4949828;28;19962;-62
2023/04/12 09:06:46;;;;;;;;;;;9.40;86.00;;;;;;4948708;28;20408;-63
2023/04/12 09:09:13;;;;;;;;;;;9.40;85.10;;;;;;4949459;28;19950;-62
2023/04/12 09:11:40;;;;;;;;;;;9.40;85.20;;;;;;4948595;28;19934;-62
2023/04/12 09:14:20;;;;;;;;;;;9.40;86.10;;;;;;4947195;28;19969;-62
2023/04/12 09:16:47;;;;;;;;;;;9.40;85.70;;;;;;4950044;28;20360;-62
2023/04/12 09:19:14;;;;;;;;;;;9.50;86.10;;;;;;4948711;28;19935;-61
2023/04/12 09:21:53;;;;;;;;;;;9.50;86.20;;;;;;4952572;28;19930;-62
2023/04/12 09:24:22;;;;;;;;;;;9.50;85.60;;;;;;4950552;28;19934;-62
2023/04/12 09:26:49;;;;;;;;;;;9.60;86.40;;;;;;4950274;28;19950;-62
2023/04/12 09:29:24;;;;;;;;;;;9.60;86.40;;;;;;4950860;28;19930;-62
2023/04/12 09:32:00;;;;;;;;;;;9.60;86.10;;;;;;4943674;28;19926;-62
2023/04/12 09:34:27;;;;;;;;;;;9.60;86.40;;;;;;4949122;28;19930;-62
2023/04/12 09:36:55;;;;;;;;;;;9.70;86.60;;;;;;4951595;28;19977;-60
2023/04/12 09:39:30;;;;;;;;;;;9.70;86.60;;;;;;4947082;28;19931;-62
2023/04/12 09:42:03;;;;;;;;;;;9.70;86.80;;;;;;4948837;28;19953;-63
2023/04/12 09:44:30;;;;;;;;;;;9.70;86.60;;;;;;4946550;28;19934;-62
2023/04/12 09:46:57;;;;;;;;;;;9.70;86.60;;;;;;4944733;28;19930;-62
2023/04/12 09:49:35;;;;;;;;;;;9.70;86.20;;;;;;4949982;28;19930;-61
2023/04/12 09:52:04;;;;;;;;;;;9.70;86.50;;;;;;4947176;28;19938;-62
2023/04/12 09:54:32;;;;;;;;;;;9.70;86.50;;;;;;4949552;28;19961;-63
2023/04/12 09:56:59;;;;;;;;;;;9.70;86.60;;;;;;4946158;28;20439;-63
2023/04/12 09:59:27;;;;;;;;;;;9.70;86.10;;;;;;4949018;28;19933;-61
2023/04/12 10:01:54;;;;;;;;;;;9.70;85.90;;;;;;4947296;28;19931;-62
2023/04/12 10:04:21;;;;;;;;;;;9.80;86.50;;;;;;4948095;28;19989;-62
2023/04/12 10:06:48;;;;;;;;;;;9.80;85.90;;;;;;4947687;28;20017;-62
2023/04/12 10:09:16;;;;;;;;;;;9.80;86.50;;;;;;4948835;28;19930;-61
2023/04/12 10:11:45;;;;;;;;;;;9.80;86.60;;;;;;4947592;28;19945;-62
2023/04/12 10:14:12;;;;;;;;;;;9.90;86.70;;;;;;4947310;28;20104;-62
2023/04/12 10:16:40;;;;;;;;;;;9.80;86.30;;;;;;4947291;28;20422;-63
2023/04/12 10:19:07;;;;;;;;;;;9.80;87.20;;;;;;4962340;28;19926;-62
2023/04/12 10:21:34;;;;;;;;;;;9.80;86.90;;;;;;4951303;28;19931;-61
2023/04/12 10:24:01;;;;;;;;;;;9.90;86.90;;;;;;4949249;28;19985;-62
2023/04/12 10:26:30;;;;;;;;;;;9.90;87.00;;;;;;4948165;28;19951;-62
2023/04/12 10:29:15;;;;;;;;;;;9.90;86.90;;;;;;4949806;28;19966;-63
2023/04/12 10:31:42;;;;;;;;;;;9.90;87.10;;;;;;4934252;28;19926;-62
2023/04/12 10:34:08;;;;;;;;;;;9.90;87.10;;;;;;4947426;28;19930;-63
2023/04/12 10:36:51;;;;;;;;;;;9.90;87.40;;;;;;4947058;28;19934;-62
2023/04/12 10:39:18;;;;;;;;;;;9.90;87.70;;;;;;4948152;28;19938;-62
2023/04/12 10:42:00;;;;;;;;;;;9.90;87.50;;;;;;4949674;28;20024;-62
2023/04/12 10:44:28;;;;;;;;;;;10.00;87.70;;;;;;4950488;28;20141;-62
2023/04/12 10:46:55;;;;;;;;;;;10.00;87.60;;;;;;4946403;28;19941;-62
2023/04/12 10:49:23;;;;;;;;;;;10.00;87.50;;;;;;4953897;28;19945;-63
2023/04/12 10:52:11;;;;;;;;;;;10.00;86.70;;;;;;4962487;28;19931;-62
2023/04/12 10:54:38;;;;;;;;;;;10.00;86.60;;;;;;4946071;28;19937;-62
2023/04/12 10:57:07;;;;;;;;;;;10.00;88.00;;;;;;4958664;28;19973;-62
2023/04/12 10:59:54;;;;;;;;;;;10.00;88.00;;;;;;4946068;28;19965;-62
2023/04/12 11:02:21;;;;;;;;;;;10.10;87.60;;;;;;4947530;28;19945;-62
2023/04/12 11:05:07;;;;;;;;;;;10.00;87.30;;;;;;4955752;28;19989;-60
2023/04/12 11:07:53;;;;;;;;;;;10.10;88.00;;;;;;4947228;28;19930;-63
2023/04/12 11:10:38;;;;;;;;;;;10.10;87.80;;;;;;4943524;28;20057;-62
2023/04/12 11:13:07;;;;;;;;;;;10.10;88.00;;;;;;4944344;28;19927;-63
2023/04/12 11:15:38;;;;;;;;;;;10.10;88.00;;;;;;4945018;28;20374;-62
2023/04/12 11:18:11;;;;;;;;;;;10.10;88.10;;;;;;4949737;28;19977;-62
2023/04/12 11:20:39;;;;;;;;;;;10.20;88.10;;;;;;4950580;28;19930;-62
2023/04/12 11:23:07;;;;;;;;;;;10.20;87.70;;;;;;4947276;28;20401;-61
2023/04/12 11:25:34;;;;;;;;;;;10.20;88.40;;;;;;4944056;28;20025;-61
2023/04/12 11:28:01;;;;;;;;;;;10.20;88.10;;;;;;4946052;28;20528;-61
2023/04/12 11:30:29;;;;;;;;;;;10.30;88.20;;;;;;4942572;28;19961;-62
2023/04/12 11:32:58;;;;;;;;;;;10.20;88.20;;;;;;4947110;28;19926;-63
2023/04/12 11:35:29;;;;;;;;;;;10.30;88.40;;;;;;4948463;28;19935;-62
2023/04/12 11:37:56;;;;;;;;;;;10.30;88.30;;;;;;4948277;28;19931;-61
2023/04/12 11:40:23;;;;;;;;;;;10.30;88.30;;;;;;4953383;28;19926;-62
2023/04/12 11:42:50;;;;;;;;;;;10.40;88.30;;;;;;4946884;28;20009;-62
2023/04/12 11:45:19;;;;;;;;;;;10.40;88.00;;;;;;4947212;28;19986;-62
2023/04/12 11:47:45;;;;;;;;;;;10.30;88.10;;;;;;4948106;28;20022;-63
2023/04/12 11:50:27;;;;;;;;;;;10.40;88.50;;;;;;4945141;28;19941;-63
2023/04/12 11:52:54;;;;;;;;;;;10.40;88.10;;;;;;4947655;28;20018;-63
2023/04/12 11:55:21;;;;;;;;;;;10.40;88.80;;;;;;4944975;28;20330;-60
2023/04/12 11:57:52;;;;;;;;;;;10.40;88.10;;;;;;4947236;29;19933;-62
2023/04/12 12:00:24;;;;;;;;;;;10.50;88.80;;;;;;4945040;28;19937;-64
2023/04/12 12:05:37;;;;;;;;;;;10.60;88.60;;;;;;4944995;28;19938;-61
2023/04/12 12:08:06;;;;;;;;;;;10.60;88.90;;;;;;4949875;28;19945;-62
2023/04/12 12:10:33;;;;;;;;;;;10.70;89.10;;;;;;4958164;28;20538;-62
2023/04/12 12:13:00;;;;;;;;;;;10.70;88.60;;;;;;4951413;28;19930;-60
2023/04/12 12:15:29;;;;;;;;;;;10.70;89.10;;;;;;4953980;28;19930;-62
2023/04/12 12:17:56;;;;;;;;;;;10.70;89.00;;;;;;4952241;28;19927;-62
2023/04/12 12:20:23;;;;;;;;;;;10.80;88.70;;;;;;4944614;28;20452;-61
2023/04/12 12:22:51;;;;;;;;;;;10.90;89.10;;;;;;4945190;28;20026;-62
2023/04/12 12:25:18;;;;;;;;;;;10.90;88.90;;;;;;4950298;28;19930;-62
2023/04/12 12:27:47;;;;;;;;;;;11.00;89.00;;;;;;4944595;28;19938;-62
2023/04/12 12:30:17;;;;;;;;;;;11.10;89.00;;;;;;4945356;28;19938;-62
2023/04/12 12:32:44;;;;;;;;;;;11.10;88.80;;;;;;4948979;28;19926;-63
2023/04/12 12:35:12;;;;;;;;;;;11.20;88.90;;;;;;4950586;28;20558;-62
2023/04/12 12:37:47;;;;;;;;;;;11.30;88.80;;;;;;4951463;28;20420;-62
2023/04/12 12:40:16;;;;;;;;;;;11.30;88.80;;;;;;4949525;28;20396;-63
2023/04/12 12:42:45;;;;;;;;;;;11.40;88.80;;;;;;4951564;28;19977;-63
2023/04/12 12:45:12;;;;;;;;;;;11.40;88.70;;;;;;4952575;28;20119;-63
2023/04/12 12:47:45;;;;;;;;;;;11.40;88.50;;;;;;4952336;28;19938;-63
2023/04/12 12:50:13;;;;;;;;;;;11.40;88.70;;;;;;4949111;28;19937;-61
2023/04/12 12:52:39;;;;;;;;;;;11.30;88.70;;;;;;4946500;28;20268;-61
2023/04/12 12:55:07;;;;;;;;;;;11.40;88.70;;;;;;4952719;28;19926;-63
2023/04/12 12:57:35;;;;;;;;;;;11.50;88.60;;;;;;4949656;28;19930;-61
2023/04/12 13:00:03;;;;;;;;;;;11.50;88.30;;;;;;4946188;28;20028;-61
2023/04/12 13:02:30;;;;;;;;;;;11.60;88.30;;;;;;4949783;28;19934;-61
2023/04/12 13:04:58;;;;;;;;;;;11.70;88.10;;;;;;4946233;28;20409;-62
2023/04/12 13:07:25;;;;;;;;;;;11.70;88.10;;;;;;4951177;29;19937;-61
2023/04/12 13:09:52;;;;;;;;;;;11.70;88.10;;;;;;4950555;28;19942;-64
2023/04/12 13:12:20;;;;;;;;;;;11.80;88.00;;;;;;4947250;28;20017;-61
2023/04/12 13:14:48;;;;;;;;;;;11.80;87.80;;;;;;4953927;28;19930;-62
2023/04/12 13:17:15;;;;;;;;;;;11.90;87.70;;;;;;4959460;28;20309;-60
2023/04/12 13:19:42;;;;;;;;;;;12.00;87.50;;;;;;4950432;28;19930;-61
2023/04/12 13:22:09;;;;;;;;;;;12.00;87.60;;;;;;4948455;28;19942;-62
2023/04/12 13:24:36;;;;;;;;;;;12.00;87.40;;;;;;4951925;28;19977;-62
2023/04/12 13:27:02;;;;;;;;;;;12.10;87.10;;;;;;4946940;28;19935;-61
2023/04/12 13:29:29;;;;;;;;;;;12.20;87.10;;;;;;4951129;28;19931;-62
2023/04/12 13:31:57;;;;;;;;;;;12.20;87.00;;;;;;4952646;28;20393;-62
2023/04/12 13:34:24;;;;;;;;;;;12.20;87.00;;;;;;4951189;28;19937;-62
2023/04/12 13:36:51;;;;;;;;;;;12.30;86.90;;;;;;4950839;28;20042;-61
2023/04/12 13:39:18;;;;;;;;;;;12.40;86.80;;;;;;4952439;28;19973;-63
2023/04/12 13:41:45;;;;;;;;;;;12.30;86.70;;;;;;4951349;28;19930;-60
2023/04/12 13:44:11;;;;;;;;;;;12.30;87.00;;;;;;4944058;28;19934;-63
2023/04/12 13:46:38;;;;;;;;;;;12.30;87.00;;;;;;4947798;28;20456;-62
2023/04/12 13:49:06;;;;;;;;;;;12.30;86.90;;;;;;4950226;28;19934;-62
2023/04/12 13:51:33;;;;;;;;;;;12.30;87.00;;;;;;4943983;28;19926;-61
2023/04/12 13:54:00;;;;;;;;;;;12.30;87.10;;;;;;4941498;28;20355;-61
2023/04/12 13:56:27;;;;;;;;;;;12.20;87.20;;;;;;4947954;28;19954;-61
2023/04/12 13:58:53;;;;;;;;;;;12.20;87.40;;;;;;4950333;29;20287;-62
2023/04/12 14:01:22;;;;;;;;;;;12.20;87.50;;;;;;4947651;28;19930;-61
2023/04/12 14:03:49;;;;;;;;;;;12.20;87.50;;;;;;4946702;28;19927;-61
2023/04/12 14:06:17;;;;;;;;;;;12.10;87.80;;;;;;4951263;28;19930;-61
2023/04/12 14:08:44;;;;;;;;;;;12.10;88.00;;;;;;4950865;28;19926;-61
2023/04/12 14:11:10;;;;;;;;;;;12.10;88.00;;;;;;4950773;28;19934;-62
2023/04/12 14:13:37;;;;;;;;;;;12.00;88.00;;;;;;4965048;28;19935;-61
2023/04/12 14:16:05;;;;;;;;;;;12.00;88.00;;;;;;4952705;28;19945;-61
2023/04/12 14:18:32;;;;;;;;;;;12.00;88.20;;;;;;4948582;28;20394;-63
2023/04/12 14:20:59;;;;;;;;;;;12.00;88.20;;;;;;4950949;28;19930;-63
2023/04/12 14:23:27;;;;;;;;;;;12.00;88.40;;;;;;4951116;28;19973;-61
2023/04/12 14:25:54;;;;;;;;;;;12.00;88.20;;;;;;4948629;28;19937;-61
2023/04/12 14:28:23;;;;;;;;;;;12.00;88.20;;;;;;4950818;28;19937;-61
2023/04/12 14:30:50;;;;;;;;;;;12.10;88.40;;;;;;4949942;28;19931;-61
2023/04/12 14:33:17;;;;;;;;;;;12.10;88.10;;;;;;4944789;28;19967;-61
2023/04/12 14:35:44;;;;;;;;;;;12.10;88.00;;;;;;4944249;28;20025;-62
2023/04/12 14:38:11;;;;;;;;;;;12.10;87.90;;;;;;4947019;28;19930;-61